createdAt,value
2023-04-02T00:01:02.736Z,100615.20
2023-04-02T00:03:42.791Z,100617.60
2023-04-02T00:06:45.317Z,100622.40
2023-04-02T00:09:14.279Z,100628.60
2023-04-02T00:11:49.919Z,100634.80
2023-04-02T00:14:21.735Z,100636.40
2023-04-02T00:16:52.846Z,100643.80
2023-04-02T00:19:58.077Z,100641.20
2023-04-02T00:22:32.646Z,100643.80
2023-04-02T00:25:09.058Z,100648.80
2023-04-02T00:27:37.744Z,100653.40
2023-04-02T00:30:15.577Z,100653.00
2023-04-02T00:32:44.664Z,100656.20
2023-04-02T00:35:28.924Z,100661.00
2023-04-02T00:37:58.496Z,100659.60
2023-04-02T00:40:32.092Z,100660.40
2023-04-02T00:43:04.782Z,100670.00
2023-04-02T00:45:39.337Z,100671.60
2023-04-02T00:48:43.227Z,100670.40
2023-04-02T00:51:25.221Z,100679.00
2023-04-02T00:53:57.344Z,100674.80
2023-04-02T00:56:31.609Z,100683.60
2023-04-02T00:59:01.075Z,100684.60
2023-04-02T01:01:37.801Z,100691.20
2023-04-02T01:04:36.829Z,100694.80
2023-04-02T01:07:10.916Z,100696.00
2023-04-02T01:10:04.831Z,100700.00
2023-04-02T01:12:49.633Z,100701.00
2023-04-02T01:15:31.325Z,100700.80
2023-04-02T01:18:31.759Z,100709.80
2023-04-02T01:21:07.407Z,100714.60
2023-04-02T01:24:02.421Z,100725.60
2023-04-02T01:26:58.273Z,100726.60
2023-04-02T01:29:55.803Z,100728.00
2023-04-02T01:32:28.325Z,100729.40
2023-04-02T01:34:58.557Z,100734.00
2023-04-02T01:38:03.504Z,100734.80
2023-04-02T01:40:41.332Z,100741.40
2023-04-02T01:43:28.250Z,100749.80
2023-04-02T01:46:05.508Z,100747.80
2023-04-02T01:48:34.221Z,100751.80
2023-04-02T01:51:08.488Z,100755.20
2023-04-02T01:53:37.122Z,100755.80
2023-04-02T01:56:07.753Z,100754.80
2023-04-02T01:58:36.962Z,100759.20
2023-04-02T02:01:19.678Z,100766.00
2023-04-02T02:03:51.621Z,100770.00
2023-04-02T02:06:20.422Z,100772.00
2023-04-02T02:08:55.788Z,100775.40
2023-04-02T02:11:29.894Z,100781.00
2023-04-02T02:14:02.423Z,100781.80
2023-04-02T02:16:32.332Z,100787.60
2023-04-02T02:19:05.467Z,100788.60
2023-04-02T02:21:47.492Z,100794.40
2023-04-02T02:24:31.959Z,100795.80
2023-04-02T02:27:35.833Z,100802.00
2023-04-02T02:30:20.802Z,100805.20
2023-04-02T02:33:16.639Z,100805.80
2023-04-02T02:36:01.001Z,100811.20
2023-04-02T02:38:47.690Z,100817.20
2023-04-02T02:41:54.475Z,100819.60
2023-04-02T02:44:31.700Z,100831.80
2023-04-02T02:47:14.270Z,100829.60
2023-04-02T02:49:50.146Z,100833.40
2023-04-02T02:52:25.037Z,100837.80
2023-04-02T02:55:20.360Z,100837.20
2023-04-02T02:58:17.724Z,100839.00
2023-04-02T03:00:59.238Z,100848.40
2023-04-02T03:03:32.822Z,100851.60
2023-04-02T03:06:08.611Z,100860.40
2023-04-02T03:08:58.449Z,100865.60
2023-04-02T03:11:51.200Z,100866.60
2023-04-02T03:14:41.285Z,100873.80
2023-04-02T03:17:21.771Z,100879.00
2023-04-02T03:20:32.328Z,100884.60
2023-04-02T03:23:28.761Z,100893.40
2023-04-02T03:26:19.564Z,100892.80
2023-04-02T03:29:05.359Z,100901.00
2023-04-02T03:32:02.099Z,100900.20
2023-04-02T03:34:41.844Z,100907.60
2023-04-02T03:37:32.346Z,100910.40
2023-04-02T03:40:10.049Z,100920.60
2023-04-02T03:42:53.067Z,100924.60
2023-04-02T03:45:28.818Z,100927.00
2023-04-02T03:48:06.721Z,100927.20
2023-04-02T03:50:42.281Z,100937.00
2023-04-02T03:53:12.354Z,100943.60
2023-04-02T03:55:43.113Z,100948.40
2023-04-02T03:58:18.381Z,100952.80
2023-04-02T04:01:21.050Z,100954.80
2023-04-02T04:03:54.381Z,100961.40
2023-04-02T04:06:33.284Z,100966.80
2023-04-02T04:09:10.253Z,100969.80
2023-04-02T04:11:46.836Z,100974.20
2023-04-02T04:14:49.116Z,100980.20
2023-04-02T04:17:35.780Z,100985.20
2023-04-02T04:20:46.178Z,100991.00
2023-04-02T04:23:37.401Z,100997.20
2023-04-02T04:26:26.351Z,100996.80
2023-04-02T04:29:27.700Z,101003.80
2023-04-02T04:32:08.413Z,101006.00
2023-04-02T04:34:53.800Z,101013.40
2023-04-02T04:37:42.705Z,101015.20
2023-04-02T04:40:25.327Z,101023.00
2023-04-02T04:43:15.719Z,101028.60
2023-04-02T04:46:01.731Z,101034.00
2023-04-02T04:48:39.307Z,101033.20
2023-04-02T04:51:23.868Z,101036.80
2023-04-02T04:53:55.695Z,101040.60
2023-04-02T04:56:30.898Z,101047.00
2023-04-02T04:59:27.714Z,101049.80
2023-04-02T05:02:25.268Z,101058.60
2023-04-02T05:04:55.643Z,101062.00
2023-04-02T05:07:35.924Z,101070.40
2023-04-02T05:10:04.658Z,101072.40
2023-04-02T05:13:01.832Z,101080.20
2023-04-02T05:15:43.223Z,101086.80
2023-04-02T05:18:26.315Z,101093.60
2023-04-02T05:21:05.399Z,101094.00
2023-04-02T05:23:49.197Z,101102.40
2023-04-02T05:26:48.836Z,101107.80
2023-04-02T05:29:29.777Z,101106.80
2023-04-02T05:32:42.323Z,101117.40
2023-04-02T05:35:18.926Z,101117.60
2023-04-02T05:37:48.467Z,101118.80
2023-04-02T05:40:29.954Z,101120.80
2023-04-02T05:43:03.841Z,101121.40
2023-04-02T05:45:39.215Z,101128.40
2023-04-02T05:48:40.258Z,101132.00
2023-04-02T05:51:17.584Z,101135.00
2023-04-02T05:54:04.300Z,101135.60
2023-04-02T05:56:44.218Z,101141.60
2023-04-02T05:59:25.188Z,101140.60
2023-04-02T06:02:04.671Z,101145.40
2023-04-02T06:04:56.768Z,101147.00
2023-04-02T06:08:08.650Z,101148.40
2023-04-02T06:11:08.691Z,101152.40
2023-04-02T06:13:39.203Z,101153.60
2023-04-02T06:16:14.771Z,101156.40
2023-04-02T06:18:44.576Z,101160.40
2023-04-02T06:21:17.879Z,101166.20
2023-04-02T06:24:04.772Z,101167.20
2023-04-02T06:26:43.705Z,101176.00
2023-04-02T06:29:40.355Z,101183.80
2023-04-02T06:32:13.542Z,101183.40
2023-04-02T06:34:45.819Z,101185.40
2023-04-02T06:37:34.980Z,101189.40
2023-04-02T06:40:31.926Z,101191.00
2023-04-02T06:43:16.797Z,101197.00
2023-04-02T06:46:29.290Z,101205.20
2023-04-02T06:49:16.024Z,101211.20
2023-04-02T06:51:47.059Z,101211.20
2023-04-02T06:54:18.005Z,101216.20
2023-04-02T06:56:53.071Z,101210.60
2023-04-02T06:59:47.742Z,101211.80
2023-04-02T07:02:37.599Z,101212.60
2023-04-02T07:05:09.852Z,101219.20
2023-04-02T07:07:42.466Z,101226.00
2023-04-02T07:10:13.195Z,101230.40
2023-04-02T07:12:42.501Z,101239.40
2023-04-02T07:15:17.340Z,101240.20
2023-04-02T07:17:48.773Z,101242.40
2023-04-02T07:20:37.767Z,101246.60
2023-04-02T07:23:10.961Z,101242.80
2023-04-02T07:25:40.334Z,101236.80
2023-04-02T07:28:09.739Z,101236.40
2023-04-02T07:30:38.847Z,101245.20
2023-04-02T07:33:14.370Z,101245.60
2023-04-02T07:35:47.505Z,101247.20
2023-04-02T07:38:17.803Z,101237.20
2023-04-02T07:40:46.692Z,101216.80
2023-04-02T07:43:15.726Z,101192.60
2023-04-02T07:45:44.474Z,101188.20
2023-04-02T07:48:15.017Z,101187.40
2023-04-02T07:50:43.695Z,101186.80
2023-04-02T07:53:42.395Z,101203.80
2023-04-02T07:56:16.406Z,101196.40
2023-04-02T07:58:46.813Z,101187.20
2023-04-02T08:01:26.470Z,101215.40
2023-04-02T08:03:57.772Z,101240.20
2023-04-02T08:06:26.499Z,101249.40
2023-04-02T08:08:56.841Z,101270.40
2023-04-02T08:11:28.070Z,101286.20
2023-04-02T08:13:57.814Z,101299.40
2023-04-02T08:16:26.690Z,101306.80
2023-04-02T08:18:55.878Z,101308.20
2023-04-02T08:21:25.790Z,101320.60
2023-04-02T08:23:54.272Z,101322.20
2023-04-02T08:26:23.386Z,101327.60
2023-04-02T08:28:52.158Z,101336.20
2023-04-02T08:31:21.208Z,101349.20
2023-04-02T08:33:50.212Z,101352.80
2023-04-02T08:36:20.485Z,101368.00
2023-04-02T08:38:49.272Z,101369.00
2023-04-02T08:41:28.050Z,101383.60
2023-04-02T08:44:18.276Z,101378.80
2023-04-02T08:47:07.664Z,101393.00
2023-04-02T08:49:56.158Z,101403.00
2023-04-02T08:52:32.258Z,101400.40
2023-04-02T08:55:03.813Z,101411.00
2023-04-02T08:58:28.225Z,101420.40
2023-04-02T09:01:00.785Z,101428.40
2023-04-02T09:03:36.833Z,101435.00
2023-04-02T09:06:10.142Z,101436.00
2023-04-02T09:08:39.852Z,101445.40
2023-04-02T09:11:42.071Z,101451.00
2023-04-02T09:14:32.529Z,101456.20
2023-04-02T09:17:04.367Z,101464.80
2023-04-02T09:19:41.165Z,101468.60
2023-04-02T09:22:28.695Z,101476.00
2023-04-02T09:25:01.780Z,101479.60
2023-04-02T09:27:35.115Z,101482.60
2023-04-02T09:30:32.183Z,101490.00
2023-04-02T09:33:09.449Z,101485.00
2023-04-02T09:35:59.033Z,101492.00
2023-04-02T09:38:31.878Z,101479.40
2023-04-02T09:41:07.550Z,101478.80
2023-04-02T09:43:39.809Z,101482.80
2023-04-02T09:46:26.266Z,101484.40
2023-04-02T09:49:01.622Z,101488.20
2023-04-02T09:51:34.605Z,101481.40
2023-04-02T09:54:06.090Z,101488.20
2023-04-02T09:56:40.645Z,101488.00
2023-04-02T09:59:18.079Z,101474.00
2023-04-02T10:02:24.936Z,101476.20
2023-04-02T10:04:53.678Z,101466.80
2023-04-02T10:07:44.134Z,101462.60
2023-04-02T10:10:39.481Z,101461.40
2023-04-02T10:13:28.752Z,101459.40
2023-04-02T10:16:41.043Z,101473.40
2023-04-02T10:19:35.968Z,101479.80
2023-04-02T10:22:16.736Z,101488.00
2023-04-02T10:24:46.456Z,101504.00
2023-04-02T10:27:40.116Z,101503.40
2023-04-02T10:30:49.223Z,101503.60
2023-04-02T10:33:37.402Z,101508.20
2023-04-02T10:36:27.789Z,101517.60
2023-04-02T10:39:17.984Z,101518.20
2023-04-02T10:42:14.624Z,101523.00
2023-04-02T10:45:04.632Z,101523.60
2023-04-02T10:48:05.191Z,101521.20
2023-04-02T10:51:01.378Z,101528.00
2023-04-02T10:53:57.508Z,101533.20
2023-04-02T10:56:28.516Z,101530.40
2023-04-02T10:59:17.619Z,101544.00
2023-04-02T11:01:49.318Z,101541.00
2023-04-02T11:04:31.378Z,101548.20
2023-04-02T11:07:21.569Z,101550.60
2023-04-02T11:09:53.896Z,101551.00
2023-04-02T11:12:43.218Z,101549.80
2023-04-02T11:15:20.399Z,101557.40
2023-04-02T11:17:49.410Z,101555.60
2023-04-02T11:21:05.280Z,101563.60
2023-04-02T11:23:57.624Z,101556.00
2023-04-02T11:26:47.628Z,101563.40
2023-04-02T11:29:21.467Z,101547.60
2023-04-02T11:32:11.501Z,101547.00
2023-04-02T11:34:46.278Z,101546.60
2023-04-02T11:37:41.352Z,101550.60
2023-04-02T11:40:14.164Z,101541.20
2023-04-02T11:42:48.711Z,101536.80
2023-04-02T11:45:52.933Z,101541.80
2023-04-02T11:48:22.270Z,101549.80
2023-04-02T11:50:51.016Z,101551.00
2023-04-02T11:53:33.572Z,101556.20
2023-04-02T11:56:31.755Z,101557.40
2023-04-02T11:59:28.189Z,101564.00
2023-04-02T12:02:28.666Z,101579.80
2023-04-02T12:05:32.308Z,101584.80
2023-04-02T12:08:44.496Z,101589.20
2023-04-02T12:11:40.639Z,101594.60
2023-04-02T12:14:52.361Z,101603.00
2023-04-02T12:17:40.747Z,101602.00
2023-04-02T12:20:10.113Z,101614.00
2023-04-02T12:22:47.625Z,101614.40
2023-04-02T12:25:34.326Z,101619.20
2023-04-02T12:28:20.929Z,101623.20
2023-04-02T12:31:02.553Z,101622.40
2023-04-02T12:33:38.283Z,101630.20
2023-04-02T12:36:16.310Z,101629.80
2023-04-02T12:38:54.801Z,101630.00
2023-04-02T12:41:33.596Z,101636.40
2023-04-02T12:44:16.692Z,101630.40
2023-04-02T12:46:46.713Z,101635.40
2023-04-02T12:49:40.526Z,101638.20
2023-04-02T12:52:16.924Z,101640.20
2023-04-02T12:54:57.865Z,101639.00
2023-04-02T12:57:30.852Z,101644.80
2023-04-02T13:00:22.823Z,101641.20
2023-04-02T13:03:07.060Z,101642.60
2023-04-02T13:05:40.478Z,101642.20
2023-04-02T13:08:23.068Z,101650.00
2023-04-02T13:11:04.203Z,101651.60
2023-04-02T13:13:42.085Z,101659.80
2023-04-02T13:16:10.645Z,101655.40
2023-04-02T13:18:39.428Z,101657.20
2023-04-02T13:21:29.822Z,101658.80
2023-04-02T13:23:58.496Z,101653.80
2023-04-02T13:26:29.619Z,101659.20
2023-04-02T13:29:04.069Z,101650.80
2023-04-02T13:31:33.761Z,101655.60
2023-04-02T13:34:02.500Z,101656.00
2023-04-02T13:36:31.558Z,101653.40
2023-04-02T13:39:00.571Z,101658.60
2023-04-02T13:41:33.914Z,101661.00
2023-04-02T13:44:03.839Z,101662.40
2023-04-02T13:46:35.059Z,101660.80
2023-04-02T13:49:03.689Z,101662.80
2023-04-02T13:51:47.661Z,101664.00
2023-04-02T13:54:55.543Z,101663.20
2023-04-02T13:57:25.381Z,101652.40
2023-04-02T13:59:53.948Z,101652.00
2023-04-02T14:02:25.635Z,101653.60
2023-04-02T14:05:14.354Z,101655.60
2023-04-02T14:07:42.955Z,101657.80
2023-04-02T14:10:39.985Z,101660.00
2023-04-02T14:13:33.675Z,101662.60
2023-04-02T14:16:23.670Z,101665.00
2023-04-02T14:19:11.294Z,101672.60
2023-04-02T14:22:25.531Z,101680.60
2023-04-02T14:25:22.073Z,101682.00
2023-04-02T14:28:17.175Z,101684.60
2023-04-02T14:31:10.898Z,101681.80
2023-04-02T14:34:08.927Z,101687.00
2023-04-02T14:36:57.785Z,101684.80
2023-04-02T14:39:53.928Z,101684.80
2023-04-02T14:42:27.288Z,101689.40
2023-04-02T14:45:47.361Z,101690.80
2023-04-02T14:48:48.082Z,101696.80
2023-04-02T14:51:41.097Z,101692.00
2023-04-02T14:54:36.307Z,101700.00
2023-04-02T14:57:23.704Z,101699.40
2023-04-02T15:00:04.951Z,101702.80
2023-04-02T15:03:25.479Z,101706.60
2023-04-02T15:06:12.291Z,101708.20
2023-04-02T15:09:09.356Z,101706.20
2023-04-02T15:11:43.716Z,101707.20
2023-04-02T15:14:29.089Z,101704.80
2023-04-02T15:16:57.861Z,101712.20
2023-04-02T15:19:26.474Z,101717.40
2023-04-02T15:22:20.740Z,101723.40
2023-04-02T15:25:17.377Z,101725.40
2023-04-02T15:28:14.824Z,101725.20
2023-04-02T15:30:46.476Z,101731.20
2023-04-02T15:34:07.818Z,101735.60
2023-04-02T15:36:54.836Z,101734.40
2023-04-02T15:39:34.409Z,101739.40
2023-04-02T15:42:30.851Z,101738.00
2023-04-02T15:45:12.567Z,101742.20
2023-04-02T15:47:47.076Z,101746.00
2023-04-02T15:50:49.957Z,101752.00
2023-04-02T15:53:50.556Z,101756.00
2023-04-02T15:56:46.189Z,101756.00
2023-04-02T15:59:35.241Z,101756.80
2023-04-02T16:02:41.273Z,101759.80
2023-04-02T16:05:41.225Z,101761.80
2023-04-02T16:08:29.390Z,101771.20
2023-04-02T16:10:58.164Z,101772.20
2023-04-02T16:13:37.909Z,101772.40
2023-04-02T16:16:20.612Z,101772.60
2023-04-02T16:19:24.143Z,101784.00
2023-04-02T16:22:22.957Z,101789.20
2023-04-02T16:25:19.764Z,101794.80
2023-04-02T16:28:27.944Z,101798.80
2023-04-02T16:31:16.391Z,101802.40
2023-04-02T16:34:17.374Z,101807.20
2023-04-02T16:37:03.772Z,101808.40
2023-04-02T16:40:15.885Z,101818.60
2023-04-02T16:43:22.147Z,101820.20
2023-04-02T16:45:57.060Z,101820.40
2023-04-02T16:49:03.048Z,101823.00
2023-04-02T16:51:41.353Z,101829.00
2023-04-02T16:54:20.310Z,101833.20
2023-04-02T16:57:56.044Z,101839.40
2023-04-02T17:01:01.308Z,101840.40
2023-04-02T17:04:19.741Z,101845.60
2023-04-02T17:07:16.075Z,101849.20
2023-04-02T17:09:53.926Z,101857.40
2023-04-02T17:12:32.696Z,101856.00
2023-04-02T17:15:26.692Z,101854.80
2023-04-02T17:18:02.052Z,101865.40
2023-04-02T17:20:31.223Z,101863.00
2023-04-02T17:23:04.745Z,101876.40
2023-04-02T17:25:42.007Z,101881.60
2023-04-02T17:28:15.415Z,101881.00
2023-04-02T17:30:51.256Z,101889.60
2023-04-02T17:33:22.198Z,101896.20
2023-04-02T17:36:00.152Z,101900.00
2023-04-02T17:38:59.508Z,101906.80
2023-04-02T17:42:22.366Z,101916.40
2023-04-02T17:45:11.636Z,101920.20
2023-04-02T17:47:49.074Z,101927.00
2023-04-02T17:50:17.817Z,101935.00
2023-04-02T17:52:53.567Z,101941.00
2023-04-02T17:55:45.702Z,101941.20
2023-04-02T17:58:39.694Z,101947.40
2023-04-02T18:01:36.077Z,101952.80
2023-04-02T18:04:48.444Z,101954.80
2023-04-02T18:07:41.609Z,101959.80
2023-04-02T18:10:34.735Z,101970.00
2023-04-02T18:13:19.316Z,101975.80
2023-04-02T18:16:27.171Z,101982.00
2023-04-02T18:19:20.486Z,101986.60
2023-04-02T18:22:03.198Z,101993.20
2023-04-02T18:25:17.043Z,101998.80
2023-04-02T18:28:38.674Z,102001.40
2023-04-02T18:31:33.304Z,102016.40
2023-04-02T18:34:23.776Z,102014.20
2023-04-02T18:37:25.217Z,102022.60
2023-04-02T18:40:24.749Z,102026.40
2023-04-02T18:42:53.620Z,102032.20
2023-04-02T18:45:37.564Z,102041.20
2023-04-02T18:48:31.859Z,102049.60
2023-04-02T18:51:02.440Z,102048.00
2023-04-02T18:53:33.732Z,102058.80
2023-04-02T18:56:08.252Z,102062.40
2023-04-02T18:58:53.436Z,102067.80
2023-04-02T19:01:37.075Z,102071.00
2023-04-02T19:04:17.223Z,102084.40
2023-04-02T19:06:54.311Z,102081.60
2023-04-02T19:09:24.131Z,102087.20
2023-04-02T19:11:56.338Z,102094.80
2023-04-02T19:14:25.760Z,102099.60
2023-04-02T19:17:37.420Z,102104.00
2023-04-02T19:20:24.306Z,102114.80
2023-04-02T19:23:41.453Z,102119.20
2023-04-02T19:26:18.612Z,102122.80
2023-04-02T19:29:12.596Z,102122.00
2023-04-02T19:32:28.515Z,102132.00
2023-04-02T19:35:05.270Z,102135.60
2023-04-02T19:38:21.359Z,102141.20
2023-04-02T19:41:09.301Z,102143.60
2023-04-02T19:43:37.880Z,102151.00
2023-04-02T19:46:06.472Z,102156.00
2023-04-02T19:49:13.246Z,102163.60
2023-04-02T19:51:41.937Z,102167.20
2023-04-02T19:54:11.083Z,102174.40
2023-04-02T19:56:41.248Z,102173.60
2023-04-02T19:59:18.037Z,102177.20
2023-04-02T20:01:48.148Z,102178.40
2023-04-02T20:04:16.654Z,102184.20
2023-04-02T20:06:45.626Z,102191.40
2023-04-02T20:09:14.213Z,102192.20
2023-04-02T20:11:42.791Z,102201.80
2023-04-02T20:14:11.481Z,102201.20
2023-04-02T20:16:40.164Z,102210.80
2023-04-02T20:19:09.060Z,102211.40
2023-04-02T20:21:39.190Z,102216.00
2023-04-02T20:24:09.107Z,102220.20
2023-04-02T20:26:37.894Z,102222.80
2023-04-02T20:29:06.781Z,102228.80
2023-04-02T20:31:36.520Z,102234.80
2023-04-02T20:34:07.041Z,102237.40
2023-04-02T20:36:36.225Z,102248.20
2023-04-02T20:39:08.193Z,102251.00
2023-04-02T20:41:37.500Z,102262.20
2023-04-02T20:44:06.523Z,102264.00
2023-04-02T20:46:35.289Z,102269.60
2023-04-02T20:49:04.189Z,102269.80
2023-04-02T20:51:34.710Z,102282.60
2023-04-02T20:54:03.508Z,102282.80
2023-04-02T20:56:32.480Z,102288.20
2023-04-02T20:59:01.088Z,102292.60
2023-04-02T21:01:31.341Z,102291.40
2023-04-02T21:04:04.440Z,102296.60
2023-04-02T21:06:37.511Z,102297.00
2023-04-02T21:09:14.821Z,102301.40
2023-04-02T21:11:44.583Z,102307.40
2023-04-02T21:14:13.164Z,102307.20
2023-04-02T21:16:42.346Z,102312.20
2023-04-02T21:19:11.419Z,102318.20
2023-04-02T21:21:40.976Z,102324.00
2023-04-02T21:24:10.556Z,102327.00
2023-04-02T21:26:41.723Z,102325.40
2023-04-02T21:29:12.569Z,102330.60
2023-04-02T21:31:41.770Z,102332.40
2023-04-02T21:34:14.795Z,102336.00
2023-04-02T21:36:46.802Z,102342.00
2023-04-02T21:39:22.503Z,102344.00
2023-04-02T21:41:53.630Z,102348.20
2023-04-02T21:44:24.840Z,102345.00
2023-04-02T21:46:54.257Z,102346.00
2023-04-02T21:49:23.580Z,102341.80
2023-04-02T21:51:52.301Z,102347.40
2023-04-02T21:54:21.280Z,102352.00
2023-04-02T21:56:50.720Z,102357.20
2023-04-02T21:59:19.792Z,102357.40
2023-04-02T22:01:51.448Z,102363.00
2023-04-02T22:04:25.702Z,102362.00
2023-04-02T22:06:54.488Z,102367.20
2023-04-02T22:09:26.722Z,102361.60
2023-04-02T22:12:02.092Z,102369.00
2023-04-02T22:14:31.021Z,102368.40
2023-04-02T22:17:00.901Z,102379.80
2023-04-02T22:19:29.829Z,102378.20
2023-04-02T22:21:58.482Z,102383.40
2023-04-02T22:24:27.487Z,102378.00
2023-04-02T22:26:56.394Z,102376.20
2023-04-02T22:29:24.955Z,102382.80
2023-04-02T22:31:53.764Z,102387.60
2023-04-02T22:34:22.524Z,102391.00
2023-04-02T22:36:51.233Z,102396.40
2023-04-02T22:39:19.802Z,102403.20
2023-04-02T22:41:48.482Z,102399.60
2023-04-02T22:44:17.337Z,102403.20
2023-04-02T22:46:46.168Z,102407.40
2023-04-02T22:49:19.643Z,102412.80
2023-04-02T22:51:48.492Z,102420.00
2023-04-02T22:54:17.395Z,102420.40
2023-04-02T22:56:46.029Z,102421.80
2023-04-02T22:59:15.052Z,102426.80
2023-04-02T23:01:43.795Z,102428.40
2023-04-02T23:04:12.502Z,102432.20
2023-04-02T23:06:41.398Z,102434.20
2023-04-02T23:09:11.356Z,102442.20
2023-04-02T23:11:39.904Z,102448.40
2023-04-02T23:14:09.732Z,102447.40
2023-04-02T23:16:38.294Z,102454.60
2023-04-02T23:19:06.879Z,102454.20
2023-04-02T23:21:35.565Z,102451.60
2023-04-02T23:24:04.768Z,102445.20
2023-04-02T23:26:33.458Z,102451.60
2023-04-02T23:29:02.689Z,102449.60
2023-04-02T23:31:32.172Z,102450.20
2023-04-02T23:34:00.742Z,102450.60
2023-04-02T23:36:33.151Z,102453.60
2023-04-02T23:39:12.254Z,102461.60
2023-04-02T23:41:43.136Z,102457.40
2023-04-02T23:44:11.950Z,102459.40
2023-04-02T23:46:40.473Z,102459.60
2023-04-02T23:49:12.828Z,102461.60
2023-04-02T23:51:41.754Z,102461.20
2023-04-02T23:54:14.599Z,102462.20
2023-04-02T23:56:43.188Z,102466.40
2023-04-02T23:59:12.085Z,102469.40
